Time;durP1;ratioP1;P1;durP2;ratioP2;P2;SDS_P1;SDS_P2;PMS_P1;PMS_P2;Temp;Humidity;BMP_temperature;BMP_pressure;BME280_temperature;BME280_humidity;BME280_pressure;Samples;Min_cycle;Max_cycle;Signal;HPM_P1;HPM_P2
2022/03/20 00:00:53;;;;;;;8.65;0.35;;;;;;;6.65;51.16;103510.22;5077296;27;96765;-36
2022/03/20 00:03:20;;;;;;;0.35;0.22;;;;;;;6.56;52.26;103497.69;5076666;27;100995;-36
2022/03/20 00:05:50;;;;;;;1.15;0.70;;;;;;;6.59;52.41;103507.53;5076035;27;100756;-36
2022/03/20 00:08:15;;;;;;;0.28;0.20;;;;;;;6.59;52.01;103510.22;5077359;27;96680;-36
2022/03/20 00:10:44;;;;;;;0.52;0.52;;;;;;;6.54;52.87;103503.97;5095907;27;96751;-35
2022/03/20 00:13:10;;;;;;;1.25;0.60;;;;;;;6.44;52.49;103489.63;5076793;27;101518;-35
2022/03/20 00:15:40;;;;;;;0.68;0.43;;;;;;;6.44;53.47;103496.81;5077161;27;100705;-36
2022/03/20 00:18:06;;;;;;;5.53;0.50;;;;;;;6.39;53.23;103491.44;5095712;27;96479;-35
2022/03/20 00:20:37;;;;;;;4.95;0.90;;;;;;;6.46;52.75;103500.38;5077132;27;96849;-36
2022/03/20 00:23:05;;;;;;;0.40;0.23;;;;;;;6.43;53.03;103487.81;5076217;27;103982;-36
2022/03/20 00:25:33;;;;;;;0.88;0.38;;;;;;;6.41;52.68;103505.75;5076534;27;100973;-36
2022/03/20 00:27:58;;;;;;;1.55;0.63;;;;;;;6.32;54.11;103490.53;5076887;27;96706;-36
2022/03/20 00:30:30;;;;;;;0.32;0.22;;;;;;;6.22;54.14;103490.53;5095741;27;96789;-35
2022/03/20 00:32:55;;;;;;;0.90;0.52;;;;;;;6.12;53.49;103462.72;5095124;27;97991;-36
2022/03/20 00:35:20;;;;;;;2.17;0.50;;;;;;;6.16;54.09;103478.88;5095308;27;96575;-36
2022/03/20 00:37:46;;;;;;;2.83;0.50;;;;;;;6.19;53.44;103474.41;5095670;27;96732;-36
2022/03/20 00:40:11;;;;;;;0.55;0.43;;;;;;;6.20;54.28;103481.56;5095960;27;96853;-35
2022/03/20 00:42:36;;;;;;;0.77;0.52;;;;;;;6.18;55.48;103476.19;5095069;27;97911;-36
2022/03/20 00:45:02;;;;;;;0.80;0.35;;;;;;;6.10;54.37;103459.13;5096169;27;97311;-36
2022/03/20 00:47:28;;;;;;;1.33;0.70;;;;;;;6.13;53.91;103462.75;5079652;27;96550;-36
2022/03/20 00:49:53;;;;;;;0.77;0.50;;;;;;;6.11;54.92;103455.56;5099200;27;96812;-35
2022/03/20 00:52:19;;;;;;;0.55;0.50;;;;;;;6.11;54.99;103453.78;5098775;27;98023;-35
2022/03/20 00:54:44;;;;;;;5.95;0.63;;;;;;;6.08;55.05;103456.47;5098556;27;97281;-36
2022/03/20 00:57:09;;;;;;;1.08;0.60;;;;;;;6.03;55.20;103454.66;5098869;27;96726;-36
2022/03/20 00:59:34;;;;;;;3.60;0.52;;;;;;;6.00;55.06;103439.41;5098470;27;96782;-36
2022/03/20 01:02:00;;;;;;;0.50;0.32;;;;;;;6.03;55.02;103449.28;5098108;27;99170;-36
2022/03/20 01:04:26;;;;;;;1.33;0.70;;;;;;;6.00;54.72;103444.81;5098420;27;98324;-36
2022/03/20 01:06:51;;;;;;;1.08;0.40;;;;;;;5.93;55.84;103434.91;5098419;27;96845;-36
2022/03/20 01:09:17;;;;;;;2.10;0.90;;;;;;;5.95;55.94;103430.47;5080055;27;96552;-35
2022/03/20 01:11:42;;;;;;;0.65;0.50;;;;;;;5.92;56.29;103423.25;5097586;27;99257;-36
2022/03/20 01:14:08;;;;;;;0.50;0.47;;;;;;;5.92;55.97;103423.25;5098250;27;97853;-36
2022/03/20 01:16:33;;;;;;;1.88;0.50;;;;;;;5.96;55.59;103413.44;5098134;27;96619;-36
2022/03/20 01:18:58;;;;;;;1.10;0.57;;;;;;;5.90;56.16;103408.91;5098530;27;96754;-36
2022/03/20 01:21:24;;;;;;;0.40;0.35;;;;;;;5.86;55.48;103400.84;5096878;27;126289;-36
2022/03/20 01:23:49;;;;;;;0.45;0.43;;;;;;;5.89;56.31;103406.25;5097435;27;119222;-36
2022/03/20 01:26:15;;;;;;;1.50;0.68;;;;;;;5.84;56.33;103408.94;5097424;27;115125;-36
2022/03/20 01:28:40;;;;;;;1.20;0.70;;;;;;;5.88;55.66;103399.94;5098891;27;96743;-36
2022/03/20 01:31:08;;;;;;;0.60;0.45;;;;;;;5.86;55.81;103384.69;5097868;27;97729;-36
2022/03/20 01:33:37;;;;;;;2.05;0.70;;;;;;;5.89;56.20;103393.69;5098094;27;97220;-36
2022/03/20 01:36:03;;;;;;;0.40;0.25;;;;;;;5.79;56.94;103378.44;5096712;27;116690;-36
2022/03/20 01:38:28;;;;;;;0.68;0.63;;;;;;;5.78;56.52;103387.41;5098187;27;96799;-36
2022/03/20 01:40:53;;;;;;;0.90;0.63;;;;;;;5.74;56.82;103381.16;5097207;27;112918;-35
2022/03/20 01:43:19;;;;;;;2.05;0.85;;;;;;;5.75;56.95;103382.03;5097107;27;119672;-36
2022/03/20 01:45:44;;;;;;;1.45;1.00;;;;;;;5.72;56.75;103372.19;5097703;27;96760;-36
2022/03/20 01:48:09;;;;;;;2.88;0.90;;;;;;;5.70;57.36;103375.78;5098203;27;96713;-36
2022/03/20 01:50:35;;;;;;;0.90;0.70;;;;;;;5.69;56.66;103380.22;5096918;27;119411;-35
2022/03/20 01:53:01;;;;;;;1.58;1.05;;;;;;;5.66;56.61;103371.28;5079388;27;101101;-36
2022/03/20 01:55:28;;;;;;;1.30;0.88;;;;;;;5.58;56.55;103362.31;5079319;27;96569;-36
2022/03/20 01:57:54;;;;;;;1.20;0.73;;;;;;;5.62;57.23;103367.69;5096817;27;96823;-36
2022/03/20 02:00:24;;;;;;;1.00;0.85;;;;;;;5.56;58.48;103364.13;5078099;27;100763;-36
2022/03/20 02:02:50;;;;;;;1.25;0.70;;;;;;;5.50;57.90;103359.63;5097403;27;97932;-35
2022/03/20 02:05:16;;;;;;;1.35;1.02;;;;;;;5.48;58.21;103358.72;5078746;27;96948;-36
2022/03/20 02:07:42;;;;;;;3.80;1.90;;;;;;;5.47;57.26;103344.38;5097760;27;96769;-36
2022/03/20 02:10:08;;;;;;;0.90;0.88;;;;;;;5.47;58.27;103340.81;5078785;27;100977;-36
2022/03/20 02:12:36;;;;;;;1.58;1.17;;;;;;;5.47;58.27;103340.81;5078620;27;100206;-36
2022/03/20 02:15:03;;;;;;;1.95;1.45;;;;;;;5.39;58.34;103338.13;5078682;27;96595;-35
2022/03/20 02:17:30;;;;;;;2.17;1.45;;;;;;;5.43;58.37;103342.59;5062346;27;96904;-35
2022/03/20 02:19:56;;;;;;;3.13;1.67;;;;;;;5.45;59.22;103334.53;5078620;27;101148;-36
2022/03/20 02:22:22;;;;;;;2.40;1.20;;;;;;;5.43;58.10;103329.16;5078509;27;100849;-36
2022/03/20 02:24:49;;;;;;;1.83;1.00;;;;;;;5.32;58.79;103325.59;5096580;27;96486;-35
2022/03/20 02:27:23;;;;;;;2.85;1.67;;;;;;;5.17;59.76;103296.00;5078614;27;96703;-36
2022/03/20 02:29:53;;;;;;;2.05;1.52;;;;;;;5.24;59.65;103314.84;5078305;27;100940;-36
2022/03/20 02:32:23;;;;;;;2.17;1.20;;;;;;;5.27;59.22;103320.22;5096906;27;97817;-36
2022/03/20 02:34:50;;;;;;;1.67;1.17;;;;;;;5.17;58.39;103296.91;5097127;27;96563;-35
2022/03/20 02:37:20;;;;;;;2.10;1.65;;;;;;;5.18;58.78;103293.34;5078559;27;96778;-35
2022/03/20 02:39:46;;;;;;;4.70;1.40;;;;;;;5.17;59.02;103290.63;5061209;27;100931;-36
2022/03/20 02:42:13;;;;;;;9.77;1.75;;;;;;;5.15;58.59;103292.41;5078312;27;101178;-36
2022/03/20 02:44:49;;;;;;;1.65;1.23;;;;;;;5.07;59.67;103268.25;5097191;27;96461;-36
2022/03/20 02:47:23;;;;;;;1.52;1.17;;;;;;;5.23;59.82;103296.03;5078432;27;96779;-36
2022/03/20 02:49:52;;;;;;;2.17;1.67;;;;;;;5.16;58.14;103279.00;5077681;27;101235;-35
2022/03/20 02:52:18;;;;;;;2.70;1.52;;;;;;;5.15;59.71;103278.97;5077916;27;101430;-36
2022/03/20 02:54:43;;;;;;;3.03;1.45;;;;;;;5.08;59.48;103275.44;5096670;27;96515;-36
2022/03/20 02:57:09;;;;;;;4.15;2.55;;;;;;;5.10;58.50;103281.66;5096518;27;101874;-36
2022/03/20 02:59:35;;;;;;;2.83;1.58;;;;;;;4.96;60.96;103268.25;5096732;27;97813;-35
2022/03/20 03:02:01;;;;;;;4.95;2.35;;;;;;;5.04;59.29;103271.81;5077702;27;101267;-36
2022/03/20 03:04:27;;;;;;;1.70;1.23;;;;;;;4.99;59.88;103267.38;5078031;27;96886;-35
2022/03/20 03:06:52;;;;;;;4.68;1.80;;;;;;;5.06;60.23;103278.09;5077438;27;100443;-35
2022/03/20 03:12:04;;;;;;;3.00;2.55;;;;;;;5.00;59.39;103271.81;5096869;27;96919;-35
2022/03/20 03:17:27;;;;;;;9.68;1.65;;;;;;;5.03;60.58;103277.19;5097002;27;96592;-35
2022/03/20 03:19:55;;;;;;;4.20;2.38;;;;;;;5.01;60.90;103269.16;5096511;27;98049;-36
2022/03/20 03:22:21;;;;;;;3.47;1.92;;;;;;;4.91;61.23;103256.63;5077589;27;101136;-36
2022/03/20 03:24:46;;;;;;;1.58;1.25;;;;;;;4.96;61.21;103268.25;5077781;27;96732;-36
2022/03/20 03:27:11;;;;;;;5.05;2.08;;;;;;;4.97;59.72;103263.78;5096540;27;96772;-37
2022/03/20 03:29:37;;;;;;;11.05;2.50;;;;;;;4.92;61.09;103258.41;5095686;27;112360;-36
2022/03/20 03:32:04;;;;;;;5.70;3.03;;;;;;;4.83;62.23;103261.06;5096581;27;97418;-36
2022/03/20 03:37:18;;;;;;;2.80;1.35;;;;;;;4.73;61.93;103240.47;5096636;27;96471;-36
2022/03/20 03:39:44;;;;;;;2.47;1.85;;;;;;;4.83;62.35;103247.63;5076918;27;101381;-36
2022/03/20 03:42:09;;;;;;;2.78;1.65;;;;;;;4.83;61.25;103247.63;5095734;27;97896;-36
2022/03/20 03:44:34;;;;;;;2.85;1.85;;;;;;;4.68;61.83;103221.69;5095291;27;110681;-36
2022/03/20 03:47:00;;;;;;;1.35;1.08;;;;;;;4.74;61.88;103220.78;5095055;27;113695;-36
2022/03/20 03:49:25;;;;;;;3.72;1.85;;;;;;;4.79;61.67;103230.66;5094865;27;124970;-36
2022/03/20 03:51:50;;;;;;;3.65;2.17;;;;;;;4.75;62.65;103225.28;5095198;27;121229;-36
2022/03/20 03:54:15;;;;;;;2.00;1.17;;;;;;;4.68;61.66;103211.81;5095219;27;113794;-36
2022/03/20 03:56:41;;;;;;;3.17;2.20;;;;;;;4.74;61.38;103215.41;5095618;27;111843;-36
2022/03/20 03:59:06;;;;;;;1.65;1.25;;;;;;;4.72;62.54;103211.81;5095617;27;100488;-36
2022/03/20 04:01:31;;;;;;;1.52;1.25;;;;;;;4.66;62.35;103197.50;5094356;27;127870;-36
2022/03/20 04:03:56;;;;;;;2.13;1.17;;;;;;;4.71;62.50;103213.63;5094379;27;115394;-36
2022/03/20 04:06:22;;;;;;;4.60;2.33;;;;;;;4.71;61.33;103210.03;5076067;27;116626;-36
2022/03/20 04:08:47;;;;;;;1.58;1.20;;;;;;;4.64;61.55;103198.41;5095460;27;99599;-36
2022/03/20 04:11:13;;;;;;;5.90;2.10;;;;;;;4.56;62.40;103192.13;5095741;27;97829;-36
2022/03/20 04:13:38;;;;;;;3.38;1.83;;;;;;;4.50;63.03;103186.75;5095884;27;96570;-36
2022/03/20 04:16:05;;;;;;;3.22;1.85;;;;;;;4.45;62.85;103173.31;5095736;27;96819;-36
2022/03/20 04:18:31;;;;;;;3.13;1.80;;;;;;;4.55;63.00;103179.59;5076812;27;101260;-36
2022/03/20 04:20:56;;;;;;;2.40;1.83;;;;;;;4.52;63.55;103174.22;5097748;27;115044;-36
2022/03/20 04:26:18;;;;;;;2.80;1.10;;;;;;;4.48;62.54;103176.00;5084536;27;98732;-36
2022/03/20 04:28:46;;;;;;;4.15;2.35;;;;;;;4.44;63.58;103164.38;5079832;27;101170;-36
2022/03/20 04:31:15;;;;;;;1.60;1.23;;;;;;;4.46;63.90;103167.09;5080380;27;100757;-36
2022/03/20 04:33:50;;;;;;;4.50;2.38;;;;;;;4.51;63.37;103180.50;5080547;27;96539;-36
2022/03/20 04:36:16;;;;;;;2.22;1.20;;;;;;;4.44;63.56;103164.38;5080669;27;96730;-36
2022/03/20 04:38:43;;;;;;;6.70;2.42;;;;;;;4.43;62.23;103162.59;5079897;27;101294;-36
2022/03/20 04:41:09;;;;;;;1.20;0.88;;;;;;;4.40;64.33;103156.31;5079608;27;100927;-36
2022/03/20 04:43:35;;;;;;;4.00;1.63;;;;;;;4.36;62.48;103149.16;5099067;27;96500;-36
2022/03/20 04:46:00;;;;;;;2.40;1.73;;;;;;;4.39;62.73;103144.69;5080527;27;96973;-36
2022/03/20 04:59:24;;;;;;;2.40;2.03;;;;;;;4.19;62.62;103125.88;5098764;27;97035;-36
2022/03/20 05:01:50;;;;;;;1.63;0.88;;;;;;;4.21;65.12;103142.88;5097536;27;127319;-36
2022/03/20 05:04:15;;;;;;;2.55;1.75;;;;;;;4.17;63.51;103125.00;5098558;27;96834;-36
2022/03/20 05:06:43;;;;;;;2.17;1.35;;;;;;;4.26;63.58;103129.47;5098101;27;96914;-36
2022/03/20 05:14:36;;;;;;;3.50;1.98;;;;;;;4.19;64.07;103111.56;5098858;27;96561;-36
2022/03/20 05:17:06;;;;;;;7.03;2.30;;;;;;;4.11;64.06;103095.47;5097875;27;110290;-36
2022/03/20 05:19:35;;;;;;;5.95;1.75;;;;;;;4.18;63.32;103099.97;5097508;27;99902;-36
2022/03/20 05:22:02;;;;;;;2.20;1.60;;;;;;;4.06;63.25;103096.38;5079283;27;101216;-36
2022/03/20 05:24:27;;;;;;;1.63;1.33;;;;;;;4.05;64.62;103090.09;5079721;27;96846;-36
2022/03/20 05:26:53;;;;;;;3.03;2.10;;;;;;;4.05;63.86;103090.09;5098030;27;99997;-36
2022/03/20 05:29:18;;;;;;;10.70;2.10;;;;;;;4.06;64.32;103089.22;5097805;27;99513;-36
2022/03/20 05:31:45;;;;;;;2.20;1.60;;;;;;;4.00;62.73;103065.06;5095817;27;126342;-36
2022/03/20 05:34:10;;;;;;;3.67;1.80;;;;;;;3.98;63.96;103059.72;5098107;27;96568;-36
2022/03/20 05:36:35;;;;;;;3.75;2.08;;;;;;;4.09;63.53;103070.44;5098676;27;96766;-36
2022/03/20 05:39:02;;;;;;;2.42;1.88;;;;;;;4.06;63.68;103075.81;5097597;27;97853;-36
2022/03/20 05:44:12;;;;;;;3.92;2.47;;;;;;;3.93;63.44;103069.53;5097808;27;96486;-36
2022/03/20 05:46:38;;;;;;;3.15;2.30;;;;;;;3.91;63.64;103073.09;5079220;27;96890;-36
2022/03/20 05:49:05;;;;;;;2.67;2.22;;;;;;;3.90;63.02;103066.84;5097685;27;97374;-36
2022/03/20 05:51:31;;;;;;;5.95;2.40;;;;;;;3.82;63.37;103063.25;5078926;27;100950;-36
2022/03/20 05:53:57;;;;;;;3.05;2.40;;;;;;;3.89;63.48;103057.00;5097892;27;96543;-36
2022/03/20 05:59:07;;;;;;;3.90;2.33;;;;;;;3.91;63.14;103067.72;5097898;27;97079;-36
2022/03/20 06:01:32;;;;;;;2.55;1.50;;;;;;;3.88;63.65;103052.53;5097895;27;97803;-36
2022/03/20 06:03:58;;;;;;;3.10;2.10;;;;;;;3.90;63.32;103044.50;5096434;27;116950;-36
2022/03/20 06:06:23;;;;;;;4.43;2.15;;;;;;;3.93;62.68;103041.81;5096297;27;115433;-36
2022/03/20 06:08:49;;;;;;;3.03;1.83;;;;;;;3.91;63.79;103043.59;5096336;27;115781;-36
2022/03/20 06:11:15;;;;;;;1.17;1.10;;;;;;;3.94;63.71;103051.66;5097524;27;97776;-36
2022/03/20 06:13:40;;;;;;;3.53;1.77;;;;;;;3.96;64.21;103050.78;5078831;27;96521;-36
2022/03/20 06:16:08;;;;;;;1.88;1.60;;;;;;;3.90;64.06;103047.19;5096594;27;117690;-36
2022/03/20 06:18:33;;;;;;;2.80;1.67;;;;;;;3.86;63.71;103035.53;5061883;27;100735;-36
2022/03/20 06:20:58;;;;;;;2.28;1.42;;;;;;;4.00;63.66;103048.97;5097125;27;97880;-36
2022/03/20 06:23:24;;;;;;;2.38;1.60;;;;;;;4.03;62.97;103046.31;5096920;27;101604;-36
2022/03/20 06:25:51;;;;;;;5.55;2.25;;;;;;;4.12;63.33;103053.47;5097711;27;96795;-36
2022/03/20 06:28:17;;;;;;;3.17;1.75;;;;;;;4.12;63.84;103048.97;5096772;27;99447;-36
2022/03/20 06:30:43;;;;;;;1.60;1.27;;;;;;;4.13;63.46;103050.78;5097170;27;97900;-36
2022/03/20 06:33:09;;;;;;;2.47;1.95;;;;;;;4.12;62.77;103035.56;5096880;27;96490;-36
2022/03/20 06:35:35;;;;;;;3.58;1.88;;;;;;;4.20;62.53;103038.28;5078598;27;96821;-36
2022/03/20 06:38:00;;;;;;;8.73;2.47;;;;;;;4.18;62.53;103032.91;5096642;27;99457;-36
2022/03/20 06:40:26;;;;;;;4.30;2.95;;;;;;;4.25;62.20;103037.38;5096740;27;97948;-36
2022/03/20 06:42:52;;;;;;;5.95;1.52;;;;;;;4.29;62.58;103034.69;5096713;27;96515;-36
2022/03/20 06:45:20;;;;;;;2.65;1.80;;;;;;;4.29;62.62;103019.50;5078307;27;96970;-36
2022/03/20 06:47:46;;;;;;;4.90;2.22;;;;;;;4.40;61.96;103043.63;5077859;27;100976;-36
2022/03/20 06:50:13;;;;;;;4.57;1.67;;;;;;;4.37;62.39;103032.91;5078416;27;100789;-36
2022/03/20 06:52:39;;;;;;;1.80;1.52;;;;;;;4.36;62.88;103028.44;5078380;27;96606;-36
2022/03/20 06:55:05;;;;;;;1.70;1.38;;;;;;;4.36;62.20;103015.94;5078426;27;96870;-36
2022/03/20 06:57:31;;;;;;;7.00;1.85;;;;;;;4.45;62.58;103031.09;5077354;27;102615;-36
2022/03/20 06:59:58;;;;;;;4.07;2.30;;;;;;;4.58;62.12;103024.84;5096612;27;97328;-36
2022/03/20 07:02:24;;;;;;;2.85;1.60;;;;;;;4.65;61.94;103023.03;5096509;27;96604;-36
2022/03/20 07:04:53;;;;;;;4.13;2.22;;;;;;;4.75;61.32;103023.91;5095605;27;116774;-36
2022/03/20 07:07:19;;;;;;;4.32;2.42;;;;;;;4.84;61.03;103019.41;5095901;27;97889;-36
2022/03/20 07:09:44;;;;;;;5.03;2.83;;;;;;;4.96;60.41;103013.13;5096210;27;99136;-36
2022/03/20 07:12:11;;;;;;;2.42;1.92;;;;;;;5.02;60.28;103010.41;5096054;27;113891;-36
2022/03/20 07:14:38;;;;;;;2.58;1.77;;;;;;;5.07;60.18;102996.94;5078322;27;96821;-36
2022/03/20 07:17:09;;;;;;;4.65;2.45;;;;;;;5.27;59.82;103005.84;5077316;27;101412;-35
2022/03/20 07:19:38;;;;;;;4.90;2.45;;;;;;;5.30;59.76;102994.19;5096018;27;99373;-36
2022/03/20 07:22:05;;;;;;;2.75;1.83;;;;;;;5.37;59.41;102993.25;5095891;27;96604;-35
2022/03/20 07:24:32;;;;;;;2.60;1.52;;;;;;;5.44;59.68;102986.94;5077819;27;96918;-36
2022/03/20 07:29:41;;;;;;;2.15;1.67;;;;;;;5.62;59.08;102979.66;5096435;27;97010;-35
2022/03/20 07:32:07;;;;;;;7.03;2.95;;;;;;;5.64;58.67;102967.97;5096199;27;96503;-36
2022/03/20 07:34:34;;;;;;;2.20;1.50;;;;;;;5.66;58.65;102951.84;5077735;27;96784;-35
2022/03/20 07:37:01;;;;;;;3.03;2.05;;;;;;;5.80;58.55;102968.78;5077461;27;100700;-35
2022/03/20 07:39:26;;;;;;;4.93;3.03;;;;;;;5.89;58.12;102971.41;5077615;27;100666;-36
2022/03/20 07:41:51;;;;;;;5.97;2.58;;;;;;;5.81;58.30;102962.47;5096264;27;96431;-36
2022/03/20 07:44:17;;;;;;;3.78;2.25;;;;;;;5.73;58.54;102954.47;5096315;27;96781;-35
2022/03/20 07:46:43;;;;;;;6.30;2.85;;;;;;;5.84;57.77;102961.56;5094813;27;112399;-35
2022/03/20 07:49:09;;;;;;;4.63;3.50;;;;;;;5.70;58.01;102945.56;5095974;27;97827;-36
2022/03/20 07:51:35;;;;;;;3.75;2.22;;;;;;;5.63;58.06;102950.06;5077466;27;96692;-35
2022/03/20 07:54:01;;;;;;;4.93;3.22;;;;;;;5.61;58.30;102949.19;5077388;27;96830;-35
2022/03/20 07:56:28;;;;;;;5.90;2.45;;;;;;;5.71;57.89;102937.47;5099530;27;97438;-35
2022/03/20 07:58:54;;;;;;;11.25;3.53;;;;;;;5.79;57.36;102926.63;5080745;27;101493;-35
2022/03/20 08:01:20;;;;;;;4.85;3.00;;;;;;;5.89;57.46;102932.84;5081059;27;96671;-36
2022/03/20 08:03:46;;;;;;;5.72;2.60;;;;;;;5.93;57.20;102929.22;5099568;27;96794;-35
2022/03/20 08:06:11;;;;;;;3.03;1.38;;;;;;;5.85;56.74;102937.34;5098458;27;98889;-36
2022/03/20 08:08:39;;;;;;;3.53;1.83;;;;;;;5.89;57.00;102930.16;5098967;27;102700;-35
2022/03/20 08:11:05;;;;;;;3.90;2.42;;;;;;;5.86;56.72;102912.22;5080316;27;96823;-35
2022/03/20 08:13:31;;;;;;;5.47;2.63;;;;;;;5.79;56.73;102915.00;5080914;27;96643;-36
2022/03/20 08:15:57;;;;;;;10.00;3.25;;;;;;;5.73;56.37;102918.63;5099126;27;99318;-36
2022/03/20 08:18:22;;;;;;;3.60;2.30;;;;;;;5.66;56.84;102903.47;5080492;27;100599;-35
2022/03/20 08:20:47;;;;;;;3.85;2.55;;;;;;;5.66;55.77;102906.16;5098810;27;106414;-36
2022/03/20 08:23:13;;;;;;;5.43;2.88;;;;;;;5.77;56.66;102908.72;5099346;27;96838;-36
2022/03/20 08:25:38;;;;;;;6.22;2.05;;;;;;;5.75;55.94;102909.66;5098257;27;113489;-35
2022/03/20 08:28:05;;;;;;;5.88;2.60;;;;;;;5.80;55.39;102906.94;5099215;27;99299;-36
2022/03/20 08:30:31;;;;;;;4.93;2.47;;;;;;;5.81;55.38;102908.69;5080593;27;96590;-36
2022/03/20 08:32:56;;;;;;;2.45;1.52;;;;;;;5.86;55.31;102906.84;5099032;27;96779;-36
2022/03/20 08:35:22;;;;;;;4.20;2.45;;;;;;;5.79;55.18;102907.81;5097925;27;111300;-35
2022/03/20 08:37:49;;;;;;;5.97;2.53;;;;;;;5.72;55.03;102914.13;5098606;27;99094;-35
2022/03/20 08:40:17;;;;;;;6.50;3.95;;;;;;;5.80;55.40;102915.00;5080298;27;96816;-36
2022/03/20 08:42:52;;;;;;;7.18;4.32;;;;;;;5.86;55.42;102904.16;5080250;27;96878;-35
2022/03/20 08:45:18;;;;;;;5.55;3.30;;;;;;;5.88;55.35;102909.53;5098467;27;99651;-35
2022/03/20 08:47:44;;;;;;;7.47;3.90;;;;;;;5.80;55.46;102906.94;5098925;27;97305;-35
2022/03/20 08:50:09;;;;;;;7.35;3.03;;;;;;;5.76;55.67;102897.09;5098846;27;96581;-35
2022/03/20 08:52:35;;;;;;;14.02;4.63;;;;;;;5.77;55.22;102892.59;5099282;27;96786;-36
2022/03/20 08:55:09;;;;;;;5.75;3.65;;;;;;;5.67;55.39;102891.78;5079823;27;101438;-36
2022/03/20 08:57:35;;;;;;;6.47;2.60;;;;;;;5.70;55.82;102902.53;5079840;27;100831;-36
2022/03/20 09:00:00;;;;;;;7.53;3.47;;;;;;;5.74;55.67;102898.91;5098355;27;96574;-35
2022/03/20 09:02:25;;;;;;;5.90;2.70;;;;;;;5.66;55.36;102890.91;5098515;27;98592;-35
2022/03/20 09:04:50;;;;;;;4.18;2.97;;;;;;;5.66;55.61;102884.63;5097200;27;127017;-36
2022/03/20 09:07:16;;;;;;;8.32;4.35;;;;;;;5.73;55.78;102892.63;5096643;27;126564;-35
2022/03/20 09:09:41;;;;;;;5.40;3.17;;;;;;;5.78;55.46;102900.66;5097748;27;114123;-35
2022/03/20 09:12:08;;;;;;;4.47;2.92;;;;;;;5.77;54.73;102900.66;5098327;27;97600;-36
2022/03/20 09:14:34;;;;;;;2.72;1.85;;;;;;;5.70;54.47;102895.34;5079466;27;100954;-36
2022/03/20 09:19:44;;;;;;;3.85;2.15;;;;;;;5.67;53.31;102889.09;5098787;27;96662;-36
2022/03/20 09:22:12;;;;;;;3.85;2.13;;;;;;;5.57;53.37;102890.97;5097870;27;109514;-36
2022/03/20 09:24:38;;;;;;;4.68;2.40;;;;;;;5.59;54.30;102893.66;5078972;27;100945;-36
2022/03/20 09:27:04;;;;;;;5.03;2.70;;;;;;;5.66;54.56;102898.09;5079330;27;100694;-36
2022/03/20 09:29:30;;;;;;;5.15;2.67;;;;;;;5.65;54.27;102889.13;5079553;27;96538;-36
2022/03/20 09:31:55;;;;;;;4.32;2.63;;;;;;;5.65;54.58;102901.66;5097897;27;101598;-36
2022/03/20 09:34:20;;;;;;;5.32;3.63;;;;;;;5.57;55.10;102908.91;5078749;27;121682;-36
2022/03/20 09:36:46;;;;;;;2.50;1.70;;;;;;;5.49;55.76;102904.47;5096663;27;128636;-36
2022/03/20 09:39:11;;;;;;;8.50;4.07;;;;;;;5.48;56.52;102910.75;5098286;27;96697;-36
2022/03/20 09:41:41;;;;;;;3.70;2.25;;;;;;;5.39;57.18;102901.88;5098039;27;96800;-36
2022/03/20 09:44:06;;;;;;;7.22;3.33;;;;;;;5.44;57.78;102909.00;5062397;27;100873;-36
2022/03/20 09:46:32;;;;;;;8.43;3.67;;;;;;;5.49;58.38;102912.53;5079327;27;97786;-35
2022/03/20 09:49:00;;;;;;;6.82;3.78;;;;;;;5.45;58.23;102891.94;5097696;27;96602;-36
2022/03/20 09:51:26;;;;;;;3.63;1.95;;;;;;;5.47;58.91;102892.84;5097872;27;96802;-36
2022/03/20 09:53:51;;;;;;;6.22;2.83;;;;;;;5.47;59.34;102903.59;5097530;27;108148;-36
2022/03/20 09:56:17;;;;;;;4.82;2.67;;;;;;;5.47;58.30;102918.81;5097648;27;97421;-36
2022/03/20 09:58:42;;;;;;;4.95;3.55;;;;;;;5.41;58.94;102914.41;5097894;27;97135;-36
2022/03/20 10:01:08;;;;;;;7.30;3.97;;;;;;;5.44;59.17;102925.13;5097667;27;96903;-36
2022/03/20 10:03:33;;;;;;;7.32;3.55;;;;;;;5.46;59.31;102923.31;5096955;27;101839;-36
2022/03/20 10:06:15;;;;;;;7.70;5.03;;;;;;;5.29;59.91;102919.81;5096990;27;99076;-36
2022/03/20 10:08:55;;;;;;;9.38;5.13;;;;;;;5.05;62.82;102919.09;5080282;27;96625;-36
2022/03/20 10:11:21;;;;;;;10.65;5.10;;;;;;;4.86;60.99;102907.53;5097551;27;96735;-36
2022/03/20 10:14:07;;;;;;;6.30;4.07;;;;;;;4.86;61.60;102914.69;5078039;27;100660;-36
2022/03/20 10:16:33;;;;;;;9.13;4.25;;;;;;;4.85;63.08;102896.78;5097215;27;99163;-36
2022/03/20 10:18:58;;;;;;;7.00;3.97;;;;;;;4.83;62.41;102880.69;5078178;27;96610;-36
2022/03/20 10:21:45;;;;;;;4.50;2.92;;;;;;;4.87;63.00;102874.41;5097329;27;96823;-36
2022/03/20 10:24:19;;;;;;;3.97;3.03;;;;;;;4.90;62.00;102862.75;5097033;27;97968;-36
2022/03/20 10:26:52;;;;;;;13.10;4.60;;;;;;;5.04;62.13;102860.88;5078327;27;100720;-36
2022/03/20 10:29:18;;;;;;;9.27;4.85;;;;;;;4.99;63.29;102841.22;5061814;27;96562;-36
2022/03/20 10:31:50;;;;;;;12.57;4.70;;;;;;;5.15;62.69;102851.84;5097672;27;96797;-36
2022/03/20 10:34:17;;;;;;;6.85;4.30;;;;;;;5.16;62.00;102824.09;5096766;27;99226;-36
2022/03/20 10:36:43;;;;;;;8.35;3.38;;;;;;;5.28;61.64;102815.94;5078281;27;99969;-36
2022/03/20 10:39:14;;;;;;;10.73;5.30;;;;;;;5.46;62.54;102837.31;5077646;27;97774;-36
2022/03/20 10:41:40;;;;;;;11.45;5.07;;;;;;;5.53;63.77;102825.59;5078394;27;96797;-36
2022/03/20 10:44:15;;;;;;;12.35;5.22;;;;;;;5.66;62.59;102833.56;5096595;27;99765;-36
2022/03/20 10:46:41;;;;;;;6.13;4.07;;;;;;;5.48;62.17;102819.38;5077992;27;100902;-36
2022/03/20 10:49:07;;;;;;;7.97;4.38;;;;;;;5.56;61.30;102826.50;5061367;27;96560;-36
2022/03/20 10:51:41;;;;;;;9.52;4.10;;;;;;;5.60;62.08;102822.84;5078124;27;96863;-36
2022/03/20 10:54:15;;;;;;;5.88;3.38;;;;;;;5.50;63.51;102817.53;5078262;27;100925;-36
2022/03/20 10:56:59;;;;;;;7.00;3.55;;;;;;;5.55;62.74;102825.56;5078278;27;99848;-36
2022/03/20 10:59:29;;;;;;;8.00;4.47;;;;;;;5.58;62.61;102825.56;5078381;27;96644;-36
2022/03/20 11:01:57;;;;;;;7.82;3.45;;;;;;;5.61;62.70;102820.16;5078004;27;96782;-36
2022/03/20 11:04:23;;;;;;;8.93;3.38;;;;;;;5.65;61.80;102818.31;5077218;27;100856;-36
2022/03/20 11:06:51;;;;;;;6.95;4.20;;;;;;;5.72;61.24;102809.28;5096151;27;97869;-36
2022/03/20 11:09:17;;;;;;;10.43;5.18;;;;;;;5.85;60.87;102812.75;5096593;27;96563;-36
2022/03/20 11:11:53;;;;;;;8.82;5.65;;;;;;;5.86;60.68;102831.56;5096804;27;96718;-36
2022/03/20 11:14:20;;;;;;;7.85;3.58;;;;;;;5.95;60.66;102814.47;5096352;27;99438;-36
2022/03/20 11:16:49;;;;;;;7.72;4.03;;;;;;;6.20;61.01;102819.56;5077716;27;100786;-36
2022/03/20 11:19:17;;;;;;;5.82;2.75;;;;;;;6.26;60.24;102817.72;5078027;27;97046;-36
2022/03/20 11:21:45;;;;;;;5.40;4.07;;;;;;;6.44;59.92;102819.31;5078268;27;96746;-36
2022/03/20 11:24:12;;;;;;;6.95;3.35;;;;;;;6.86;58.79;102822.31;5077500;27;100808;-36
2022/03/20 11:26:39;;;;;;;6.93;3.80;;;;;;;7.29;59.13;102804.59;5096028;27;97865;-36
2022/03/20 11:29:08;;;;;;;4.53;2.88;;;;;;;7.58;57.40;102805.03;5095393;27;96677;-36
2022/03/20 11:31:36;;;;;;;7.43;3.70;;;;;;;8.08;56.83;102807.69;5077786;27;96763;-36
2022/03/20 11:34:05;;;;;;;6.82;3.65;;;;;;;8.45;55.70;102799.75;5077340;27;100697;-36
2022/03/20 11:36:31;;;;;;;5.85;2.88;;;;;;;8.79;54.89;102801.72;5095891;27;98869;-36
2022/03/20 11:39:11;;;;;;;7.95;4.53;;;;;;;8.95;52.48;102785.16;5096359;27;96631;-36
2022/03/20 11:41:37;;;;;;;4.70;3.08;;;;;;;8.92;51.74;102786.13;5077452;27;96881;-36
2022/03/20 11:44:21;;;;;;;7.07;3.78;;;;;;;8.93;51.70;102793.28;5095912;27;99229;-36
2022/03/20 11:47:14;;;;;;;8.52;5.07;;;;;;;9.03;48.22;102792.13;5077986;27;98960;-36
2022/03/20 11:49:40;;;;;;;5.22;3.38;;;;;;;8.95;50.57;102790.56;5096668;27;96578;-36
2022/03/20 11:52:10;;;;;;;7.40;3.67;;;;;;;8.65;51.35;102782.22;5095960;27;96853;-36
2022/03/20 11:54:41;;;;;;;4.20;2.58;;;;;;;8.49;50.06;102796.06;5095269;27;99215;-36
2022/03/20 11:57:29;;;;;;;4.10;2.63;;;;;;;8.29;50.72;102803.66;5095928;27;98176;-36
2022/03/20 11:59:56;;;;;;;6.63;3.25;;;;;;;8.16;51.11;102808.44;5096069;27;97310;-36
2022/03/20 12:02:46;;;;;;;6.65;3.83;;;;;;;7.98;53.21;102795.28;5077262;27;96820;-36
2022/03/20 12:05:37;;;;;;;5.45;3.28;;;;;;;7.86;54.66;102815.28;5095611;27;98126;-37
2022/03/20 12:08:08;;;;;;;6.90;4.32;;;;;;;7.83;54.96;102812.66;5054764;27;99189;-36